• Join FlightAware (Why Join?)
  • Login
  • US Flag 
01:27AM EDT


 

Airport Tracker/Info


-or-


 

Live Flight TrackerFlight Track Log ✈ LAN2605 ✈ 26-Sep-2013 ✈ KLAX - SPIM / LIM

Flight Track Log - Related Links

Times and Time Zones

All times are in EDT time to prevent confusion due to time zone crossing. See the LAN2605 flight status page for this flight to view local times or setup timezone preferences in your user account.

Time Position Orientation Groundspeed Altitude Reporting Facility
EDT Latitude Longitude Course Direction KTS MPH feet Rate Location/Type
03:32AM 33.9330 -118.4660 211° Southwest 197 227 1,900  Level FlightAware
03:32AM 33.9120 -118.4780 205° Southwest 230 265 2,300 1,620 Climbing FlightAware
03:33AM 33.8920 -118.4900 206° Southwest 238 274 3,100 2,160 Climbing FlightAware
03:33AM 33.8700 -118.5010 203° Southwest 254 292 3,800 2,160 Climbing FlightAware
03:33AM 33.8440 -118.5150 204° Southwest 271 312 4,700 2,400 Climbing FlightAware
03:34AM 33.8200 -118.5270 203° Southwest 277 319 5,600 2,880 Climbing FlightAware
03:34AM 33.7990 -118.5360 200° South 280 322 6,500 3,000 Climbing FlightAware
03:34AM 33.7880 -118.5380 189° South 287 330 6,900 3,060 Climbing FlightAware
03:34AM 33.7590 -118.5270 162° South 300 345 8,100 3,360 Climbing FlightAware
03:35AM 33.7360 -118.5090 147° Southeast 299 344 9,200 2,700 Climbing FlightAware
03:35AM 33.7190 -118.4950 146° Southeast 305 351 9,700 1,980 Climbing FlightAware
03:36AM 33.6870 -118.4660 143° Southeast 325 374 10,700 1,800 Climbing FlightAware
03:36AM 33.6790 -118.4520 124° Southeast 341 392 10,800 900 Climbing FlightAware
03:36AM 33.6720 -118.4280 109° East 362 417 11,000 840 Climbing FlightAware
03:36AM 33.6600 -118.3520 101° East 401 461 11,500 1,020 Climbing FlightAware
03:37AM 33.6480 -118.2810 101° East 427 491 12,200 1,560 Climbing FlightAware
03:38AM 33.6340 -118.1930 101° East 447 514 13,300 1,920 Climbing FlightAware
03:38AM 33.6190 -118.1030 101° East 457 526 14,600 2,160 Climbing FlightAware
03:39AM 33.6060 -118.0210 101° East 462 532 15,800 2,040 Climbing FlightAware
03:39AM 33.5900 -117.9660 109° East 457 526 16,500 1,920 Climbing FlightAware
03:40AM 33.5510 -117.8980 125° Southeast 461 531 17,600 1,920 Climbing FlightAware
03:40AM 33.5080 -117.8140 122° Southeast 471 542 18,800 1,800 Climbing FlightAware
03:41AM 33.4750 -117.7430 119° Southeast 479 551 19,700 1,800 Climbing FlightAware
03:41AM 33.4350 -117.6530 118° Southeast 485 558 20,900 1,680 Climbing FlightAware
03:42AM 33.3980 -117.5720 119° Southeast 492 566 21,800 1,560 Climbing FlightAware
03:43AM 33.3640 -117.4970 118° Southeast 496 571 22,600 1,560 Climbing FlightAware
03:43AM 33.3240 -117.4080 118° Southeast 502 578 23,600 1,500 Climbing FlightAware
03:44AM 33.2830 -117.3180 119° Southeast 508 585 24,500 1,440 Climbing FlightAware
03:44AM 33.2410 -117.2260 119° Southeast 513 590 25,400 1,560 Climbing FlightAware
03:45AM 33.2050 -117.1460 118° Southeast 515 593 26,300 1,560 Climbing FlightAware
03:46AM 33.1650 -117.0590 119° Southeast 515 593 27,200 1,500 Climbing FlightAware
03:46AM 33.1310 -116.9850 119° Southeast 515 593 28,000 1,560 Climbing FlightAware
03:47AM 33.0830 -116.8800 119° Southeast 512 589 29,100 1,500 Climbing FlightAware
03:47AM 33.0410 -116.7900 119° Southeast 511 588 30,000 1,500 Climbing FlightAware
03:48AM 33.0060 -116.7130 118° Southeast 508 585 30,800 840 Climbing FlightAware
03:48AM 32.9650 -116.6250 119° Southeast 515 593 31,000 120 Climbing FlightAware
03:49AM 32.9230 -116.5340 119° Southeast 513 590 31,000  Level FlightAware
03:50AM 32.8870 -116.4560 119° Southeast 511 588 31,000  Level FlightAware
03:50AM 32.8420 -116.3590 119° Southeast 512 589 31,000  Level FlightAware
03:51AM 32.8020 -116.2720 119° Southeast 517 595 31,000  Level FlightAware
03:51AM 32.7650 -116.1920 119° Southeast 518 596 31,000  Level FlightAware
03:52AM 32.7260 -116.1080 119° Southeast 512 589 31,000  Level FlightAware
03:53AM 32.6850 -116.0190 119° Southeast 507 583 31,000  Level FlightAware
03:53AM 32.6430 -115.9320 120° Southeast 501 577 31,000  Level FlightAware
03:54AM 32.6030 -115.8450 119° Southeast 500 575 31,000 60 Level FlightAware
03:54AM 32.5630 -115.7600 119° Southeast 503 579 31,100  Climbing FlightAware
03:55AM 32.5240 -115.6770 119° Southeast 511 588 31,000 -120 Descending FlightAware
03:55AM 32.4840 -115.5920 119° Southeast 510 587 31,000  Level FlightAware
03:56AM 32.4450 -115.5110 120° Southeast 506 582 31,000  Level FlightAware
03:57AM 32.4070 -115.4300 119° Southeast 506 582 31,000  Level FlightAware
03:57AM 32.3630 -115.3380 120° Southeast 507 583 31,000  Level FlightAware
03:58AM 32.3090 -115.2240 119° Southeast 509 586 31,000  Level FlightAware
03:59AM 32.2740 -115.1490 119° Southeast 509 586 31,000  Level FlightAware
03:59AM 32.2390 -115.0750 119° Southeast 509 586 31,000  Level FlightAware
04:00AM 32.2060 -115.0050 119° Southeast 509 586 31,000  Level FlightAware
04:00AM 32.1710 -114.9300 119° Southeast 509 586 31,000  Level FlightAware
04:01AM 32.1480 -114.8800 119° Southeast 509 586 31,000  Level FlightAware
04:01AM 32.1130 -114.8060 119° Southeast 509 586 31,000  Level FlightAware
04:02AM 32.0780 -114.7320 119° Southeast 509 586 31,000  Level FlightAware
04:03AM 32.0430 -114.6570 119° Southeast 509 586 31,000  Level FlightAware
04:03AM 32.0080 -114.5830 119° Southeast 509 586 31,000  Level FlightAware
04:04AM 31.9720 -114.5070 119° Southeast 509 586 31,000  Level FlightAware
04:04AM 31.9390 -114.4360 119° Southeast 509 586 31,000  Level FlightAware
04:05AM 31.9030 -114.3600 119° Southeast 509 586 31,000  Level FlightAware
04:06AM 31.8690 -114.2860 118° Southeast 509 586 31,000  Level FlightAware
04:06AM 31.8340 -114.2120 119° Southeast 509 586 31,000  Level FlightAware
04:07AM 31.7980 -114.1350 119° Southeast 509 586 31,000  Level FlightAware
04:08AM 31.7630 -114.0610 119° Southeast 509 586 31,000  Level FlightAware
04:08AM 31.5980 -113.7630 123° Southeast 31,000  Level FlightAware
04:09AM 31.5520 -113.6700 120° Southeast 501 577 31,000  Level FlightAware
04:10AM 31.5170 -113.5980 120° Southeast 501 577 31,000  Level FlightAware
04:10AM 31.4810 -113.5260 120° Southeast 501 577 31,000  Level FlightAware
04:11AM 31.4460 -113.4540 120° Southeast 501 577 31,000  Level FlightAware
04:11AM 31.4220 -113.4060 120° Southeast 501 577 31,000  Level FlightAware
04:12AM 31.3850 -113.3300 120° Southeast 501 577 31,000  Level FlightAware
04:13AM 31.2840 -113.1790 128° Southeast 497 572 31,000  Level FlightAware
04:13AM 31.2400 -113.1140 128° Southeast 497 572 31,000  Level FlightAware
04:14AM 31.1970 -113.0490 128° Southeast 497 572 31,000  Level FlightAware
04:15AM 31.1540 -112.9840 128° Southeast 497 572 31,000  Level FlightAware
04:15AM 31.1100 -112.9200 129° Southeast 497 572 31,000  Level FlightAware
04:16AM 31.0670 -112.8550 128° Southeast 497 572 31,000  Level FlightAware
04:16AM 31.0240 -112.7900 128° Southeast 497 572 31,000  Level FlightAware
04:17AM 30.9100 -112.6540 134° Southeast 31,000  Level FlightAware
04:18AM 30.8170 -112.5220 129° Southeast 501 577 31,000  Level FlightAware
04:18AM 30.7590 -112.4430 130° Southeast 504 580 31,000  Level FlightAware
04:19AM 30.6960 -112.3530 129° Southeast 504 580 31,000  Level FlightAware
04:20AM 30.6200 -112.2490 130° Southeast 503 579 31,000  Level FlightAware
04:21AM 30.5630 -112.1700 130° Southeast 502 578 31,000  Level FlightAware
04:21AM 30.5160 -112.1050 130° Southeast 501 577 31,000  Level FlightAware
04:22AM 30.4610 -112.0290 130° Southeast 500 575 31,000  Level FlightAware
04:22AM 30.4070 -111.9550 130° Southeast 498 573 31,000  Level FlightAware
04:23AM 30.3630 -111.8950 130° Southeast 498 573 31,000  Level FlightAware
04:23AM 30.3070 -111.8180 130° Southeast 496 571 31,000  Level FlightAware
04:24AM 30.2530 -111.7440 130° Southeast 494 568 31,000  Level FlightAware
04:25AM 30.2000 -111.6710 130° Southeast 493 567 31,000  Level FlightAware
04:25AM 30.1540 -111.6080 130° Southeast 491 565 31,000  Level FlightAware
04:26AM 30.1010 -111.5360 130° Southeast 490 564 31,000  Level FlightAware
04:26AM 30.0480 -111.4640 130° Southeast 490 564 31,000  Level FlightAware
04:27AM 29.9960 -111.3930 130° Southeast 489 563 31,000  Level FlightAware
04:28AM 29.9490 -111.3290 130° Southeast 490 564 31,000  Level FlightAware
04:28AM 29.8960 -111.2570 130° Southeast 490 564 31,000  Level FlightAware
04:29AM 29.8430 -111.1860 131° Southeast 490 564 31,000  Level FlightAware
04:29AM 29.7900 -111.1140 130° Southeast 489 563 31,000  Level FlightAware
04:30AM 29.7420 -111.0500 131° Southeast 490 564 31,000  Level FlightAware
04:30AM 29.6870 -110.9750 130° Southeast 490 564 31,000  Level FlightAware
04:31AM 29.6340 -110.9040 131° Southeast 490 564 31,000  Level FlightAware
04:32AM 29.5860 -110.8400 131° Southeast 490 564 31,000  Level FlightAware
04:32AM 29.5340 -110.7700 130° Southeast 490 564 31,000  Level FlightAware
04:33AM 29.4810 -110.6990 131° Southeast 490 564 31,000  Level FlightAware
04:33AM 29.4330 -110.6350 131° Southeast 491 565 31,000  Level FlightAware
04:34AM 29.3760 -110.5600 131° Southeast 490 564 31,000  Level FlightAware
04:35AM 29.3230 -110.4890 131° Southeast 490 564 31,000  Level FlightAware
04:35AM 29.2750 -110.4260 131° Southeast 489 563 31,000  Level FlightAware
04:36AM 29.2220 -110.3550 131° Southeast 489 563 31,000  Level FlightAware
04:36AM 29.1660 -110.2790 130° Southeast 489 563 31,000  Level FlightAware
04:37AM 29.1210 -110.2180 130° Southeast 489 563 31,000  Level FlightAware
04:38AM 29.0750 -110.1560 130° Southeast 489 563 31,000  Level FlightAware
04:38AM 29.0310 -110.0950 130° Southeast 489 563 31,000  Level FlightAware
04:39AM 28.9860 -110.0350 131° Southeast 489 563 31,000  Level FlightAware
04:39AM 28.9420 -109.9740 129° Southeast 489 563 31,000  Level FlightAware
04:40AM 28.8970 -109.9130 130° Southeast 489 563 31,000  Level FlightAware
04:41AM 28.8520 -109.8510 130° Southeast 489 563 31,000  Level FlightAware
04:41AM 28.8070 -109.7910 131° Southeast 489 563 31,000  Level FlightAware
04:42AM 28.7630 -109.7300 129° Southeast 489 563 31,000  Level FlightAware
04:42AM 28.7180 -109.6700 131° Southeast 489 563 31,000  Level FlightAware
04:43AM 28.6740 -109.6090 129° Southeast 489 563 31,000  Level FlightAware
04:44AM 28.6290 -109.5490 131° Southeast 489 563 31,000  Level FlightAware
04:44AM 28.5850 -109.4880 129° Southeast 489 563 31,000  Level FlightAware
04:45AM 28.5400 -109.4280 130° Southeast 489 563 31,000  Level FlightAware
04:45AM 28.4960 -109.3680 130° Southeast 489 563 31,000 120 Level FlightAware
04:48AM 28.2758 -109.1997 146° Southeast  Level FlightAware Approximate
04:49AM 28.1796 -109.1014 132° Southeast  Level Estimated
04:50AM 28.0887 -108.9969 135° Southeast  Level FlightAware Approximate
04:51AM 27.9977 -108.8926 135° Southeast  Level FlightAware Approximate
04:52AM 27.9013 -108.7948 131° Southeast  Level Estimated
04:53AM 27.8166 -108.6840 131° Southeast  Level FlightAware Approximate
04:54AM 27.7319 -108.5734 131° Southeast  Level FlightAware Approximate
04:55AM 27.6471 -108.4630 131° Southeast  Level FlightAware Approximate
04:56AM 27.5622 -108.3527 131° Southeast  Level FlightAware Approximate
04:57AM 27.4772 -108.2426 131° Southeast  Level FlightAware Approximate
04:58AM 27.3921 -108.1327 131° Southeast  Level FlightAware Approximate
04:59AM 27.3070 -108.0229 131° Southeast  Level FlightAware Approximate
04:59AM 27.1600 -107.7120 131° Southeast 482 555 33,000  Level FlightAware
04:59AM 27.1100 -107.6500 132° Southeast 480 552 33,000  Level FlightAware
05:00AM 27.0540 -107.5800 132° Southeast 478 550 33,000  Level FlightAware
05:00AM 27.0120 -107.5280 132° Southeast 477 549 33,000  Level FlightAware
05:01AM 26.9530 -107.4550 132° Southeast 476 548 33,000  Level FlightAware
05:02AM 26.8700 -107.3530 132° Southeast 475 547 33,000  Level FlightAware
05:03AM 26.8170 -107.2870 132° Southeast 475 547 33,000  Level FlightAware
05:03AM 26.7690 -107.2290 133° Southeast 475 547 33,000  Level FlightAware
05:04AM 26.7220 -107.1700 132° Southeast 475 547 33,000  Level FlightAware
05:04AM 26.6720 -107.1080 132° Southeast 475 547 33,000  Level FlightAware
05:05AM 26.6110 -107.0350 133° Southeast 474 545 33,000  Level FlightAware
05:06AM 26.5580 -106.9700 132° Southeast 476 548 33,000  Level FlightAware
05:06AM 26.5050 -106.9060 133° Southeast 477 549 33,000  Level FlightAware
05:07AM 26.4560 -106.8450 132° Southeast 477 549 33,000  Level FlightAware
05:07AM 26.4020 -106.7810 133° Southeast 477 549 33,000  Level FlightAware
05:08AM 26.3490 -106.7160 132° Southeast 477 549 33,000  Level FlightAware
05:09AM 26.2950 -106.6500 132° Southeast 475 547 33,000  Level FlightAware
05:09AM 26.2270 -106.5670 132° Southeast 475 547 33,000  Level FlightAware
05:10AM 26.1700 -106.4990 133° Southeast 476 548 33,000  Level FlightAware
05:10AM 26.1220 -106.4410 133° Southeast 476 548 33,000  Level FlightAware
05:11AM 26.0720 -106.3800 132° Southeast 477 549 33,000  Level FlightAware
05:12AM 26.0180 -106.3150 133° Southeast 476 548 33,000  Level FlightAware
05:12AM 25.9700 -106.2570 133° Southeast 476 548 33,000  Level FlightAware
05:13AM 25.9160 -106.1930 133° Southeast 477 549 33,000  Level FlightAware
05:13AM 25.8620 -106.1280 133° Southeast 476 548 33,000  Level FlightAware
05:14AM 25.8110 -106.0660 132° Southeast 477 549 33,000  Level FlightAware
05:14AM 25.7620 -106.0080 133° Southeast 476 548 33,000  Level FlightAware
05:15AM 25.7030 -105.9370 133° Southeast 475 547 33,000  Level FlightAware
05:16AM 25.6550 -105.8810 134° Southeast 475 547 33,000  Level FlightAware
05:16AM 25.6020 -105.8170 133° Southeast 476 548 33,000  Level FlightAware
05:17AM 25.5510 -105.7570 133° Southeast 475 547 33,000  Level FlightAware
05:17AM 25.5000 -105.6960 133° Southeast 474 545 33,000  Level FlightAware
05:18AM 25.4440 -105.6300 133° Southeast 474 545 33,000  Level FlightAware
05:19AM 25.3910 -105.5670 133° Southeast 474 545 33,000  Level FlightAware
05:19AM 25.3380 -105.5040 133° Southeast 474 545 33,000  Level FlightAware
05:20AM 25.2890 -105.4460 133° Southeast 474 545 33,000  Level FlightAware
05:20AM 25.2330 -105.3810 134° Southeast 474 545 33,000  Level FlightAware
05:21AM 25.1870 -105.3260 133° Southeast 475 547 33,000  Level FlightAware
05:22AM 25.1280 -105.2570 133° Southeast 474 545 33,000  Level FlightAware
05:22AM 25.0760 -105.1950 133° Southeast 475 547 33,000  Level FlightAware
05:23AM 25.0230 -105.1330 133° Southeast 474 545 33,000  Level FlightAware
05:23AM 24.9690 -105.0700 133° Southeast 474 545 33,000  Level FlightAware
05:24AM 24.9150 -105.0060 133° Southeast 474 545 33,000  Level FlightAware
05:25AM 24.8680 -104.9510 133° Southeast 474 545 33,000  Level FlightAware
05:25AM 24.8210 -104.8950 133° Southeast 474 545 33,000  Level FlightAware
05:26AM 24.7750 -104.8410 133° Southeast 474 545 33,000  Level FlightAware
05:26AM 24.7300 -104.7870 133° Southeast 474 545 33,000  Level FlightAware
05:27AM 24.6840 -104.7330 133° Southeast 474 545 33,000  Level FlightAware
05:27AM 24.5900 -104.6280 135° Southeast 476 548 33,000  Level FlightAware
05:28AM 24.5400 -104.5690 133° Southeast 476 548 33,000  Level FlightAware
05:29AM 24.4940 -104.5150 133° Southeast 476 548 33,000  Level FlightAware
05:29AM 24.4470 -104.4590 133° Southeast 476 548 33,000  Level FlightAware
05:30AM 24.4010 -104.4050 133° Southeast 476 548 33,000  Level FlightAware
05:31AM 24.3550 -104.3510 133° Southeast 476 548 33,000  Level FlightAware
05:31AM 24.3070 -104.2950 133° Southeast 476 548 33,000  Level FlightAware
05:32AM 24.2620 -104.2410 132° Southeast 476 548 33,000  Level FlightAware
05:32AM 24.2160 -104.1870 133° Southeast 476 548 33,000  Level FlightAware
05:33AM 24.1700 -104.1330 133° Southeast 476 548 33,000  Level FlightAware
05:34AM 24.1240 -104.0790 133° Southeast 476 548 33,000  Level FlightAware
05:34AM 24.0780 -104.0250 133° Southeast 476 548 33,000  Level FlightAware
05:35AM 24.0320 -103.9710 133° Southeast 476 548 33,000  Level FlightAware
05:35AM 23.9860 -103.9170 133° Southeast 476 548 33,000  Level FlightAware
05:36AM 23.9390 -103.8620 133° Southeast 476 548 33,000  Level FlightAware
05:37AM 23.8910 -103.8060 133° Southeast 476 548 33,000  Level FlightAware
05:37AM 23.8450 -103.7520 133° Southeast 476 548 33,000  Level FlightAware
05:40AM 23.6211 -103.5376 139° Southeast  Level FlightAware Approximate
05:41AM 23.5313 -103.4344 133° Southeast  Level FlightAware Approximate
05:42AM 23.4425 -103.3317 133° Southeast  Level FlightAware Approximate
05:42AM 23.2570 -103.1070 133° Southeast 482 555 33,000  Level FlightAware
05:43AM 23.1920 -103.0340 134° Southeast 483 556 33,000  Level FlightAware
05:43AM 23.1270 -102.9590 133° Southeast 483 556 33,000  Level FlightAware
05:44AM 23.0460 -102.8680 134° Southeast 483 556 33,000  Level FlightAware
05:45AM 22.9840 -102.7990 134° Southeast 483 556 33,000  Level FlightAware
05:46AM 22.9330 -102.7430 135° Southeast 484 557 33,000  Level FlightAware
05:46AM 22.8850 -102.6900 135° Southeast 484 557 33,000  Level FlightAware
05:47AM 22.8370 -102.6360 134° Southeast 484 557 33,000  Level FlightAware
05:47AM 22.7900 -102.5830 134° Southeast 484 557 33,000  Level FlightAware
05:48AM 22.6870 -102.5150 149° Southeast 485 558 33,000  Level FlightAware
05:49AM 22.6010 -102.4440 143° Southeast 484 557 33,000  Level FlightAware
05:49AM 22.5340 -102.3880 142° Southeast 482 555 33,000  Level FlightAware
05:50AM 22.4700 -102.3340 142° Southeast 481 554 33,000  Level FlightAware
05:50AM 22.4110 -102.2850 142° Southeast 480 552 33,000  Level FlightAware
05:51AM 22.3470 -102.2310 142° Southeast 481 554 33,000  Level FlightAware
05:52AM 22.2900 -102.1840 143° Southeast 481 554 33,000  Level FlightAware
05:52AM 22.2310 -102.1340 142° Southeast 481 554 33,000  Level FlightAware
05:53AM 22.1640 -102.0780 142° Southeast 481 554 33,000  Level FlightAware
05:53AM 22.1010 -102.0250 142° Southeast 481 554 33,000  Level FlightAware
05:54AM 22.0370 -101.9720 142° Southeast 481 554 33,000  Level FlightAware
05:55AM 21.9800 -101.9250 143° Southeast 481 554 33,000  Level FlightAware
05:55AM 21.9180 -101.8740 143° Southeast 480 552 33,000  Level FlightAware
05:56AM 21.8530 -101.8200 142° Southeast 480 552 33,000  Level FlightAware
05:56AM 21.7910 -101.7680 142° Southeast 479 551 33,000  Level FlightAware
05:57AM 21.7330 -101.7200 142° Southeast 481 554 33,000  Level FlightAware
05:57AM 21.6710 -101.6680 142° Southeast 481 554 33,000  Level FlightAware
05:58AM 21.6070 -101.6160 143° Southeast 479 551 33,000  Level FlightAware
05:59AM 21.5440 -101.5640 142° Southeast 479 551 33,000  Level FlightAware
05:59AM 21.4860 -101.5160 142° Southeast 478 550 33,000  Level FlightAware
06:00AM 21.4200 -101.4620 143° Southeast 477 549 33,000  Level FlightAware
06:00AM 21.3650 -101.4160 142° Southeast 475 547 33,000  Level FlightAware
06:01AM 21.3010 -101.3640 143° Southeast 473 544 33,000  Level FlightAware
06:02AM 21.2370 -101.3110 142° Southeast 471 542 33,000  Level FlightAware
06:02AM 21.1810 -101.2650 143° Southeast 470 541 33,000  Level FlightAware
06:03AM 21.1170 -101.2130 143° Southeast 469 540 33,000  Level FlightAware
06:03AM 21.0560 -101.1630 143° Southeast 468 539 33,000  Level FlightAware
06:04AM 21.0010 -101.1190 143° Southeast 469 540 33,000  Level FlightAware
06:04AM 20.9380 -101.0670 142° Southeast 468 539 33,000  Level FlightAware
06:05AM 20.8750 -101.0150 142° Southeast 468 539 33,000  Level FlightAware
06:06AM 20.8140 -100.9660 143° Southeast 467 537 33,000  Level FlightAware
06:06AM 20.7580 -100.9200 142° Southeast 467 537 33,000  Level FlightAware
06:07AM 20.6770 -100.8540 143° Southeast 468 539 33,000  Level FlightAware
06:08AM 20.6160 -100.8040 143° Southeast 469 540 33,000  Level FlightAware
06:08AM 20.5510 -100.7520 143° Southeast 469 540 33,000  Level FlightAware
06:09AM 20.4730 -100.6890 143° Southeast 470 541 33,000  Level FlightAware
06:10AM 20.4060 -100.6340 142° Southeast 470 541 33,000  Level FlightAware
06:10AM 20.3440 -100.5850 143° Southeast 471 542 33,000  Level FlightAware
06:11AM 20.2980 -100.5460 142° Southeast 470 541 33,000  Level FlightAware
06:12AM 20.2140 -100.4790 143° Southeast 469 540 33,000  Level FlightAware
06:12AM 20.1610 -100.4340 141° Southeast 469 540 33,000  Level FlightAware
06:13AM 20.1080 -100.3900 142° Southeast 469 540 33,000  Level FlightAware
06:13AM 20.0180 -100.3220 145° Southeast 466 536 33,000  Level FlightAware
06:14AM 19.9560 -100.2720 143° Southeast 466 536 33,000  Level FlightAware
06:14AM 19.9010 -100.2280 143° Southeast 465 535 33,000  Level FlightAware
06:15AM 19.8390 -100.1780 143° Southeast 465 535 33,000  Level FlightAware
06:16AM 19.7770 -100.1290 143° Southeast 465 535 33,000  Level FlightAware
06:16AM 19.7240 -100.0860 143° Southeast 464 534 33,000  Level FlightAware
06:17AM 19.6460 -100.0230 143° Southeast 465 535 33,000  Level FlightAware
06:18AM 19.5820 -99.9720 143° Southeast 465 535 33,000  Level FlightAware
06:18AM 19.5080 -99.9140 144° Southeast 465 535 33,000  Level FlightAware
06:19AM 19.4540 -99.8710 143° Southeast 465 535 33,000  Level FlightAware
06:20AM 19.4000 -99.8270 142° Southeast 465 535 33,000  Level FlightAware
06:20AM 19.3480 -99.7850 143° Southeast 465 535 33,000  Level FlightAware
06:21AM 19.2930 -99.7420 144° Southeast 465 535 33,000  Level FlightAware
06:21AM 19.2840 -99.5600 93° East 468 539 33,000  Level FlightAware
06:22AM 19.2550 -99.5120 123° Southeast 468 539 33,000  Level FlightAware
06:22AM 19.2060 -99.4320 123° Southeast 468 539 33,000  Level FlightAware
06:23AM 19.1630 -99.3640 124° Southeast 467 537 33,000  Level FlightAware
06:24AM 19.1260 -99.3020 122° Southeast 468 539 33,000  Level FlightAware
06:24AM 19.0840 -99.2340 123° Southeast 469 540 33,000  Level FlightAware
06:25AM 19.0460 -99.1720 123° Southeast 469 540 33,000  Level FlightAware
06:25AM 19.0050 -99.1060 123° Southeast 470 541 33,000  Level FlightAware
06:26AM 18.9620 -99.0340 122° Southeast 470 541 33,000  Level FlightAware
06:27AM 18.9180 -98.9640 124° Southeast 470 541 33,000  Level FlightAware
06:27AM 18.8820 -98.9040 122° Southeast 470 541 33,000  Level FlightAware
06:28AM 18.8310 -98.8200 123° Southeast 470 541 33,000  Level FlightAware
06:28AM 18.7960 -98.7610 122° Southeast 470 541 33,000  Level FlightAware
06:29AM 18.7610 -98.7010 122° Southeast 470 541 33,000  Level FlightAware
06:30AM 18.7250 -98.6420 123° Southeast 470 541 33,000  Level FlightAware
06:30AM 18.6900 -98.5820 122° Southeast 470 541 33,000  Level FlightAware
06:31AM 18.6550 -98.5230 122° Southeast 470 541 33,000  Level FlightAware
06:31AM 18.6200 -98.4630 122° Southeast 470 541 33,000  Level FlightAware
06:32AM 18.5840 -98.4030 122° Southeast 470 541 33,000  Level FlightAware
06:33AM 18.5480 -98.3420 122° Southeast 470 541 33,000  Level FlightAware
06:33AM 18.5110 -98.2790 122° Southeast 470 541 33,000  Level FlightAware
06:34AM 18.4760 -98.2200 122° Southeast 470 541 33,000  Level FlightAware
06:35AM 18.4390 -98.1590 123° Southeast 470 541 33,000  Level FlightAware
06:35AM 18.4040 -98.0990 122° Southeast 470 541 33,000  Level FlightAware
06:36AM 18.3690 -98.0400 122° Southeast 470 541 33,000  Level FlightAware
06:36AM 18.3340 -97.9800 122° Southeast 470 541 33,000  Level FlightAware
06:37AM 18.2970 -97.9190 123° Southeast 470 541 33,000  Level FlightAware
06:40AM 18.0251 -97.7142 144° Southeast  Level Estimated
06:41AM 17.9198 -97.6350 144° Southeast  Level Estimated
06:42AM 17.8144 -97.5560 144° Southeast  Level Estimated
06:43AM 17.7090 -97.4771 144° Southeast  Level Estimated
06:44AM 17.6036 -97.3982 145° Southeast  Level Estimated
06:45AM 17.4982 -97.3195 145° Southeast  Level Estimated
06:46AM 17.3927 -97.2408 145° Southeast  Level Estimated
06:47AM 17.2872 -97.1623 145° Southeast  Level Estimated
06:48AM 17.1816 -97.0838 145° Southeast  Level Estimated
06:49AM 17.0761 -97.0054 145° Southeast  Level Estimated
06:50AM 16.9705 -96.9271 145° Southeast  Level Estimated
06:51AM 16.8648 -96.8489 145° Southeast  Level Estimated
06:52AM 16.7592 -96.7708 145° Southeast  Level Estimated
06:53AM 16.6535 -96.6927 145° Southeast  Level Estimated
06:54AM 16.5478 -96.6148 145° Southeast  Level Estimated
06:55AM 16.4420 -96.5369 145° Southeast  Level Estimated
06:56AM 16.3362 -96.4592 145° Southeast  Level Estimated
06:57AM 16.2304 -96.3815 145° Southeast  Level Estimated
06:58AM 16.1246 -96.3038 145° Southeast  Level Estimated
06:59AM 16.0187 -96.2263 145° Southeast  Level Estimated
07:00AM 15.9129 -96.1489 145° Southeast  Level Estimated
07:01AM 15.8069 -96.0715 145° Southeast  Level Estimated
07:02AM 15.7010 -95.9942 145° Southeast  Level Estimated
07:03AM 15.5950 -95.9170 145° Southeast  Level Estimated
07:04AM 15.4890 -95.8399 145° Southeast  Level Estimated
07:05AM 15.3830 -95.7629 145° Southeast  Level Estimated
07:06AM 15.2770 -95.6859 145° Southeast  Level Estimated
07:07AM 15.1709 -95.6090 145° Southeast  Level Estimated
07:08AM 15.0648 -95.5322 145° Southeast  Level Estimated
07:09AM 14.9587 -95.4555 145° Southeast  Level Estimated
07:10AM 14.8525 -95.3788 145° Southeast  Level Estimated
07:11AM 14.7463 -95.3022 145° Southeast  Level Estimated
07:12AM 14.6401 -95.2257 145° Southeast  Level Estimated
07:13AM 14.5339 -95.1493 145° Southeast  Level Estimated
07:14AM 14.4277 -95.0729 145° Southeast  Level Estimated
07:15AM 14.3214 -94.9966 145° Southeast  Level Estimated
07:16AM 14.2151 -94.9204 145° Southeast  Level Estimated
07:17AM 14.1088 -94.8443 145° Southeast  Level Estimated
07:18AM 14.0024 -94.7682 145° Southeast  Level Estimated
07:19AM 13.8960 -94.6922 145° Southeast  Level Estimated
07:20AM 13.7896 -94.6163 145° Southeast  Level Estimated
07:21AM 13.6832 -94.5404 145° Southeast  Level Estimated
07:22AM 13.5768 -94.4646 145° Southeast  Level Estimated
07:23AM 13.4703 -94.3889 145° Southeast  Level Estimated
07:24AM 13.3638 -94.3132 145° Southeast  Level Estimated
07:25AM 13.2573 -94.2376 145° Southeast  Level Estimated
07:26AM 13.1508 -94.1621 145° Southeast  Level Estimated
07:27AM 13.0442 -94.0866 145° Southeast  Level Estimated
07:28AM 12.9376 -94.0113 145° Southeast  Level Estimated
07:29AM 12.8310 -93.9359 145° Southeast  Level Estimated
07:30AM 12.7244 -93.8606 145° Southeast  Level Estimated
07:30AM 13.7690 -92.2970 145° Southeast 470 541 33,000  Level FlightAware
07:30AM 13.7230 -92.2470 133° Southeast 470 541 33,000  Level FlightAware
07:31AM 13.6560 -92.1740 133° Southeast 470 541 33,000  Level FlightAware
07:32AM 13.6040 -92.1160 133° Southeast 470 541 33,000  Level FlightAware
07:32AM 13.5530 -92.0580 132° Southeast 471 542 33,000  Level FlightAware
07:33AM 13.5030 -91.9990 131° Southeast 471 542 33,000  Level FlightAware
07:34AM 13.4530 -91.9400 131° Southeast 472 543 33,000  Level FlightAware
07:34AM 13.4020 -91.8810 132° Southeast 467 537 33,000  Level FlightAware
07:35AM 13.3310 -91.7960 131° Southeast 466 536 33,000  Level FlightAware
07:36AM 13.2710 -91.7280 132° Southeast 467 537 33,000  Level FlightAware
07:36AM 13.2200 -91.6690 132° Southeast 468 539 33,000  Level FlightAware
07:37AM 13.1540 -91.5900 131° Southeast 468 539 33,000  Level FlightAware
07:38AM 13.0980 -91.5270 132° Southeast 467 537 33,000  Level FlightAware
07:38AM 13.0410 -91.4600 131° Southeast 466 536 33,000  Level FlightAware
07:39AM 12.9930 -91.4120 136° Southeast 474 545 33,000  Level FlightAware
07:40AM 12.9080 -91.3330 138° Southeast 475 547 33,000 420 Level FlightAware
07:40AM 12.8570 -91.2870 139° Southeast 465 535 33,600 1,380 Climbing FlightAware
07:41AM 12.7980 -91.2410 143° Southeast 468 539 34,500 1,080 Climbing FlightAware
07:41AM 12.7270 -91.1870 143° Southeast 463 533 35,000 300 Climbing FlightAware
07:42AM 12.6440 -91.1290 146° Southeast 470 541 35,000  Level FlightAware
07:43AM 12.5890 -91.0910 146° Southeast 470 541 35,000  Level FlightAware
07:43AM 12.5330 -91.0530 146° Southeast 470 541 35,000  Level FlightAware
07:44AM 12.4780 -91.0150 146° Southeast 470 541 35,000  Level FlightAware
07:45AM 12.3630 -90.9450 149° Southeast 459 528 35,000  Level FlightAware
07:45AM 12.3000 -90.9040 148° Southeast 459 528 35,000  Level FlightAware
07:46AM 12.2350 -90.8610 147° Southeast 459 528 35,000  Level FlightAware
07:46AM 12.1720 -90.8190 147° Southeast 459 528 35,000  Level FlightAware
07:47AM 12.1080 -90.7780 148° Southeast 459 528 35,000  Level FlightAware
07:48AM 12.0460 -90.7370 147° Southeast 459 528 35,000  Level FlightAware
07:48AM 11.9850 -90.6970 147° Southeast 460 529 35,000  Level FlightAware
07:49AM 11.8900 -90.6340 147° Southeast 460 529 35,000  Level FlightAware
07:50AM 11.8290 -90.5950 148° Southeast 458 527 35,000  Level FlightAware
07:50AM 11.7680 -90.5550 147° Southeast 457 526 35,000  Level FlightAware
07:51AM 11.6880 -90.5020 147° Southeast 463 533 35,000  Level FlightAware
07:52AM 11.6090 -90.4500 147° Southeast 457 526 35,000  Level FlightAware
07:52AM 11.5330 -90.4010 148° Southeast 462 532 35,000  Level FlightAware
07:53AM 11.4760 -90.3640 148° Southeast 462 532 35,000  Level FlightAware
07:53AM 11.4100 -90.3210 147° Southeast 462 532 35,000  Level FlightAware
07:54AM 11.3470 -90.2800 147° Southeast 463 533 35,000  Level FlightAware
07:55AM 11.2840 -90.2390 147° Southeast 463 533 35,000  Level FlightAware
07:55AM 11.2040 -90.1870 147° Southeast 458 527 35,000  Level FlightAware
07:56AM 11.1480 -90.1500 147° Southeast 459 528 35,000  Level FlightAware
07:56AM 11.0940 -90.1140 147° Southeast 459 528 35,000  Level FlightAware
07:57AM 11.0170 -90.0640 147° Southeast 459 528 35,000  Level FlightAware
07:58AM 10.8990 -89.9880 148° Southeast 464 534 35,000  Level FlightAware
07:59AM 10.8330 -89.9430 146° Southeast 464 534 35,000  Level FlightAware
07:59AM 10.7780 -89.9060 147° Southeast 464 534 35,000  Level FlightAware
08:00AM 10.7240 -89.8690 146° Southeast 464 534 35,000  Level FlightAware
08:01AM 10.5940 -89.7910 149° Southeast 462 532 35,000  Level FlightAware
08:02AM 10.5400 -89.7540 146° Southeast 462 532 35,000  Level FlightAware
08:02AM 10.4850 -89.7180 147° Southeast 462 532 35,000  Level FlightAware
08:03AM 10.4300 -89.6820 147° Southeast 462 532 35,000  Level FlightAware
08:03AM 10.3750 -89.6460 147° Southeast 462 532 35,000  Level FlightAware
08:04AM 10.3190 -89.6090 147° Southeast 462 532 35,000  Level FlightAware
08:05AM 10.2640 -89.5720 146° Southeast 462 532 35,000  Level FlightAware
08:05AM 10.2090 -89.5360 147° Southeast 462 532 35,000  Level FlightAware
08:06AM 10.1540 -89.5000 147° Southeast 462 532 35,000  Level FlightAware
08:06AM 10.0990 -89.4640 147° Southeast 462 532 35,000  Level FlightAware
08:07AM 10.0440 -89.4280 147° Southeast 462 532 35,000  Level FlightAware
08:08AM 9.9890 -89.3910 146° Southeast 462 532 35,000  Level FlightAware
08:08AM 9.9350 -89.3550 147° Southeast 462 532 35,000  Level FlightAware
08:09AM 9.8780 -89.3180 147° Southeast 462 532 35,000  Level FlightAware
08:09AM 9.8220 -89.2810 147° Southeast 462 532 35,000  Level FlightAware
08:10AM 9.7670 -89.2450 147° Southeast 462 532 35,000  Level FlightAware
08:13AM 9.5247 -89.0443 141° Southeast  Level FlightAware Approximate
08:14AM 9.4244 -88.9613 141° Southeast  Level FlightAware Approximate
08:15AM 9.3241 -88.8784 141° Southeast  Level FlightAware Approximate
08:16AM 9.2238 -88.7955 141° Southeast  Level FlightAware Approximate
08:17AM 9.1235 -88.7126 141° Southeast  Level FlightAware Approximate
08:18AM 9.0231 -88.6299 141° Southeast  Level FlightAware Approximate
08:19AM 8.9205 -88.5485 143° Southeast  Level FlightAware Approximate
08:20AM 8.8166 -88.4704 143° Southeast  Level FlightAware Approximate
08:21AM 8.7127 -88.3922 143° Southeast  Level FlightAware Approximate
08:22AM 8.6088 -88.3141 143° Southeast  Level FlightAware Approximate
08:23AM 8.5049 -88.2361 143° Southeast  Level FlightAware Approximate
08:24AM 8.4010 -88.1581 143° Southeast  Level FlightAware Approximate
08:25AM 8.2970 -88.0801 143° Southeast  Level FlightAware Approximate
08:26AM 8.1930 -88.0022 143° Southeast  Level FlightAware Approximate
08:27AM 8.0891 -87.9243 143° Southeast  Level FlightAware Approximate
08:28AM 7.9851 -87.8465 143° Southeast  Level FlightAware Approximate
08:29AM 7.8811 -87.7686 143° Southeast  Level FlightAware Approximate
08:30AM 7.7770 -87.6909 143° Southeast  Level FlightAware Approximate
08:31AM 7.6731 -87.6130 143° Southeast  Level FlightAware Approximate
08:32AM 7.5695 -87.5347 143° Southeast  Level FlightAware Approximate
08:33AM 7.4659 -87.4564 143° Southeast  Level FlightAware Approximate
08:34AM 7.3623 -87.3782 143° Southeast  Level FlightAware Approximate
08:35AM 7.2586 -87.3000 143° Southeast  Level FlightAware Approximate
08:36AM 7.1550 -87.2219 143° Southeast  Level FlightAware Approximate
08:37AM 7.0513 -87.1438 143° Southeast  Level FlightAware Approximate
08:38AM 6.9476 -87.0657 143° Southeast  Level FlightAware Approximate
08:39AM 6.8439 -86.9876 143° Southeast  Level FlightAware Approximate
08:40AM 6.7402 -86.9096 143° Southeast  Level FlightAware Approximate
08:41AM 6.6365 -86.8316 143° Southeast  Level FlightAware Approximate
08:42AM 6.5328 -86.7537 143° Southeast  Level FlightAware Approximate
08:43AM 6.4290 -86.6758 143° Southeast  Level FlightAware Approximate
08:44AM 6.3253 -86.5979 143° Southeast  Level FlightAware Approximate
08:45AM 6.2215 -86.5201 143° Southeast  Level FlightAware Approximate
08:46AM 6.1177 -86.4422 143° Southeast  Level FlightAware Approximate
08:47AM 6.0139 -86.3644 143° Southeast  Level FlightAware Approximate
08:48AM 5.9102 -86.2867 143° Southeast  Level FlightAware Approximate
08:49AM 5.8065 -86.2087 142° Southeast  Level FlightAware Approximate
08:50AM 5.7045 -86.1286 142° Southeast  Level FlightAware Approximate
08:51AM 5.6024 -86.0486 142° Southeast  Level FlightAware Approximate
08:52AM 5.5004 -85.9686 142° Southeast  Level FlightAware Approximate
08:53AM 5.3983 -85.8886 142° Southeast  Level FlightAware Approximate
08:54AM 5.2962 -85.8087 142° Southeast  Level FlightAware Approximate
08:55AM 5.1940 -85.7289 144° Southeast  Level FlightAware Approximate
08:56AM 5.0898 -85.6519 144° Southeast  Level FlightAware Approximate
08:57AM 4.9855 -85.5748 144° Southeast  Level FlightAware Approximate
08:58AM 4.8813 -85.4978 144° Southeast  Level FlightAware Approximate
08:59AM 4.7770 -85.4209 144° Southeast  Level FlightAware Approximate
09:00AM 4.6727 -85.3439 144° Southeast  Level FlightAware Approximate
09:01AM 4.5684 -85.2670 144° Southeast  Level FlightAware Approximate
09:02AM 4.4641 -85.1901 144° Southeast  Level FlightAware Approximate
09:03AM 4.3598 -85.1132 144° Southeast  Level FlightAware Approximate
09:04AM 4.2555 -85.0363 144° Southeast  Level FlightAware Approximate
09:05AM 4.1512 -84.9594 144° Southeast  Level FlightAware Approximate
09:06AM 4.0469 -84.8826 144° Southeast  Level FlightAware Approximate
09:07AM 3.9425 -84.8058 144° Southeast  Level FlightAware Approximate
09:08AM 3.8382 -84.7290 144° Southeast  Level FlightAware Approximate
09:09AM 3.7339 -84.6523 144° Southeast  Level FlightAware Approximate
09:10AM 3.6295 -84.5755 144° Southeast  Level FlightAware Approximate
09:11AM 3.5251 -84.4988 144° Southeast  Level FlightAware Approximate
09:12AM 3.4208 -84.4221 144° Southeast  Level FlightAware Approximate
09:13AM 3.3164 -84.3454 144° Southeast  Level FlightAware Approximate
09:14AM 3.2124 -84.2681 143° Southeast  Level FlightAware Approximate
09:15AM 3.1086 -84.1908 143° Southeast  Level FlightAware Approximate
09:16AM 3.0047 -84.1134 143° Southeast  Level FlightAware Approximate
09:17AM 2.9008 -84.0361 143° Southeast  Level FlightAware Approximate
09:18AM 2.7969 -83.9588 143° Southeast  Level FlightAware Approximate
09:19AM 2.6930 -83.8815 143° Southeast  Level FlightAware Approximate
09:20AM 2.5891 -83.8043 143° Southeast  Level FlightAware Approximate
09:21AM 2.4852 -83.7270 143° Southeast  Level FlightAware Approximate
09:22AM 2.3812 -83.6497 143° Southeast  Level FlightAware Approximate
09:23AM 2.2773 -83.5725 143° Southeast  Level FlightAware Approximate
09:24AM 2.1734 -83.4953 143° Southeast  Level FlightAware Approximate
09:25AM 2.0695 -83.4181 143° Southeast  Level FlightAware Approximate
09:26AM 1.9655 -83.3408 143° Southeast  Level FlightAware Approximate
09:27AM 1.8616 -83.2636 143° Southeast  Level FlightAware Approximate
09:28AM 1.7576 -83.1864 143° Southeast  Level FlightAware Approximate
09:29AM 1.6537 -83.1093 143° Southeast  Level FlightAware Approximate
09:30AM 1.5497 -83.0321 143° Southeast  Level FlightAware Approximate
09:31AM 1.4458 -82.9549 143° Southeast  Level FlightAware Approximate
09:32AM 1.3310 -82.8966 157° South  Level FlightAware Approximate
09:33AM 1.2120 -82.8456 157° South  Level FlightAware Approximate
09:34AM 1.0930 -82.7947 157° South  Level FlightAware Approximate
09:35AM 0.9740 -82.7437 157° South  Level FlightAware Approximate
09:36AM 0.8551 -82.6927 157° South  Level FlightAware Approximate
09:37AM 0.7361 -82.6418 157° South  Level FlightAware Approximate
09:38AM 0.6171 -82.5908 157° South  Level FlightAware Approximate
09:39AM 0.4981 -82.5398 157° South  Level FlightAware Approximate
09:40AM 0.3791 -82.4889 157° South  Level FlightAware Approximate
09:41AM 0.2601 -82.4379 157° South  Level FlightAware Approximate
09:42AM 0.1411 -82.3870 157° South  Level FlightAware Approximate
09:43AM 0.0221 -82.3360 157° South  Level FlightAware Approximate
09:44AM -0.0969 -82.2850 157° South  Level FlightAware Approximate
09:45AM -0.2159 -82.2341 157° South  Level FlightAware Approximate
09:46AM -0.3349 -82.1831 157° South  Level FlightAware Approximate
09:47AM -0.4538 -82.1322 157° South  Level FlightAware Approximate
09:48AM -0.5728 -82.0812 157° South  Level FlightAware Approximate
09:49AM -0.6918 -82.0302 157° South  Level FlightAware Approximate
09:50AM -0.8108 -81.9793 157° South  Level FlightAware Approximate
09:50AM -1.3320 -82.1630 157° South 37,000  Level FlightAware
09:51AM -0.9298 -81.9283 157° South  Level FlightAware Approximate
09:51AM -1.4090 -82.1410 164° South 467 537 37,000  Level FlightAware
09:51AM -1.4730 -82.1220 163° South 467 537 37,000  Level FlightAware
09:52AM -1.5700 -82.0960 165° South 467 537 37,000  Level FlightAware
09:53AM -1.6500 -82.0740 165° South 468 539 37,000  Level FlightAware
09:53AM -1.7130 -82.0550 163° South 468 539 37,000  Level FlightAware
09:54AM -1.7770 -82.0370 164° South 468 539 37,000  Level FlightAware
09:55AM -1.8880 -82.0070 165° South 469 540 37,000  Level FlightAware
09:55AM -1.9630 -81.9860 164° South 468 539 37,000  Level FlightAware
09:56AM -2.0430 -81.9640 165° South 467 537 37,000  Level FlightAware
09:57AM -2.1340 -81.9380 164° South 468 539 37,000  Level FlightAware
09:57AM -2.2170 -81.9140 164° South 468 539 37,000  Level FlightAware
09:58AM -2.3090 -81.8890 165° South 758 872 37,000  Level FlightAware
09:58AM -2.3820 -81.8690 165° South 469 540 37,000  Level FlightAware
09:59AM -2.4960 -81.8370 164° South 467 537 37,000  Level FlightAware
10:00AM -2.5680 -81.8160 164° South 469 540 37,000  Level FlightAware
10:01AM -2.6510 -81.7930 165° South 469 540 37,000  Level FlightAware
10:01AM -2.7250 -81.7730 165° South 469 540 37,000  Level FlightAware
10:02AM -2.7910 -81.7540 164° South 469 540 37,000  Level FlightAware
10:02AM -2.8570 -81.7350 164° South 469 540 37,000  Level FlightAware
10:03AM -2.9170 -81.7180 164° South 469 540 37,000  Level FlightAware
10:04AM -2.9810 -81.6990 163° South 469 540 37,000  Level FlightAware
10:04AM -3.0890 -81.6710 165° South 966 1112 37,000  Level FlightAware
10:05AM -3.1920 -81.6410 164° South 470 541 37,000  Level FlightAware
10:06AM -3.2800 -81.6170 165° South 469 540 37,000  Level FlightAware
10:06AM -3.3410 -81.6000 164° South 469 540 37,000  Level FlightAware
10:07AM -3.4230 -81.5760 164° South 469 540 37,000  Level FlightAware
10:08AM -3.4870 -81.5580 164° South 469 540 37,000  Level FlightAware
10:08AM -3.5510 -81.5390 163° South 469 540 37,000  Level FlightAware
10:09AM -3.6150 -81.5210 164° South 469 540 37,000  Level FlightAware
10:09AM -3.6780 -81.5030 164° South 469 540 37,000  Level FlightAware
10:10AM -3.7420 -81.4840 163° South 469 540 37,000  Level FlightAware
10:11AM -3.8060 -81.4660 164° South 469 540 37,000  Level FlightAware
10:11AM -3.8700 -81.4480 164° South 469 540 37,000  Level FlightAware
10:12AM -4.0070 -81.4130 166° South 472 543 37,000  Level FlightAware
10:12AM -4.1070 -81.3850 164° South 472 543 37,000  Level FlightAware
10:13AM -4.1860 -81.3620 164° South 472 543 37,000  Level FlightAware
10:14AM -4.2510 -81.3440 165° South 472 543 37,000  Level FlightAware
10:14AM -4.3150 -81.3250 164° South 472 543 37,000  Level FlightAware
10:15AM -4.3790 -81.3070 164° South 472 543 37,000  Level FlightAware
10:15AM -4.4430 -81.2880 164° South 472 543 37,000  Level FlightAware
10:16AM -4.5080 -81.2700 165° South 472 543 37,000  Level FlightAware
10:17AM -4.5720 -81.2510 164° South 472 543 37,000  Level FlightAware
10:17AM -4.6360 -81.2330 164° South 472 543 37,000  Level FlightAware
10:18AM -4.7000 -81.2140 164° South 472 543 37,000  Level FlightAware
10:18AM -4.7640 -81.1960 164° South 472 543 37,000  Level FlightAware
10:19AM -4.8290 -81.1780 165° South 472 543 37,000  Level FlightAware
10:20AM -4.8930 -81.1590 164° South 472 543 37,000  Level FlightAware
10:20AM -4.9570 -81.1410 164° South 472 543 37,000  Level FlightAware
10:21AM -5.0230 -81.1220 164° South 472 543 37,000  Level FlightAware
10:21AM -5.0870 -81.1030 164° South 472 543 37,000  Level FlightAware
10:22AM -5.1480 -81.0860 164° South 472 543 37,000 -540 Level FlightAware
10:25AM -5.4354 -80.9229 151° Southeast  Level Estimated
10:26AM -5.5480 -80.8589 151° Southeast  Level Estimated
10:27AM -5.6607 -80.7949 151° Southeast  Level Estimated
10:28AM -5.7734 -80.7308 151° Southeast  Level Estimated
10:29AM -5.8860 -80.6667 150° Southeast  Level Estimated
10:30AM -5.9987 -80.6026 150° Southeast  Level Estimated
10:31AM -6.1113 -80.5385 150° Southeast  Level Estimated
10:32AM -6.2240 -80.4743 150° Southeast  Level Estimated
10:33AM -6.3366 -80.4101 150° Southeast  Level Estimated
10:34AM -6.4492 -80.3459 150° Southeast  Level Estimated
10:35AM -6.5618 -80.2816 150° Southeast  Level Estimated
10:36AM -6.6744 -80.2174 150° Southeast  Level Estimated
10:37AM -6.7870 -80.1531 150° Southeast  Level Estimated
10:38AM -6.8996 -80.0887 150° Southeast  Level Estimated
10:39AM -7.0122 -80.0244 150° Southeast  Level Estimated
10:40AM -7.1248 -79.9600 150° Southeast  Level Estimated
10:41AM -7.2373 -79.8955 150° Southeast  Level Estimated
10:42AM -7.3499 -79.8311 150° Southeast  Level Estimated
10:43AM -7.4624 -79.7666 150° Southeast  Level Estimated
10:44AM -7.5750 -79.7020 150° Southeast  Level Estimated
10:45AM -7.6875 -79.6375 150° Southeast  Level Estimated
10:46AM -7.8000 -79.5729 150° Southeast  Level Estimated
10:47AM -7.9125 -79.5083 150° Southeast  Level Estimated
10:48AM -8.0250 -79.4436 150° Southeast  Level Estimated
10:49AM -8.1375 -79.3789 150° Southeast  Level Estimated
10:50AM -8.2499 -79.3142 150° Southeast  Level Estimated
10:51AM -8.3624 -79.2494 150° Southeast  Level Estimated
10:52AM -8.4748 -79.1846 150° Southeast  Level Estimated
10:53AM -8.5873 -79.1197 150° Southeast  Level Estimated
10:54AM -8.6997 -79.0548 150° Southeast  Level Estimated
10:55AM -8.8121 -78.9899 150° Southeast  Level Estimated
10:56AM -8.9245 -78.9250 150° Southeast  Level Estimated
10:57AM -9.0369 -78.8600 150° Southeast  Level Estimated
10:58AM -9.1493 -78.7949 150° Southeast  Level Estimated
10:59AM -9.2617 -78.7298 150° Southeast  Level Estimated
11:00AM -9.3741 -78.6647 150° Southeast  Level Estimated
11:01AM -9.4864 -78.5995 150° Southeast  Level Estimated
11:02AM -9.5988 -78.5343 150° Southeast  Level Estimated
11:03AM -9.7111 -78.4690 150° Southeast  Level Estimated
11:04AM -9.8234 -78.4037 150° Southeast  Level Estimated
11:05AM -9.9357 -78.3384 150° Southeast  Level Estimated
11:06AM -10.0480 -78.2730 150° Southeast  Level Estimated
11:07AM -10.1603 -78.2076 150° Southeast  Level Estimated
11:08AM -10.2725 -78.1421 150° Southeast  Level Estimated
11:09AM -10.3848 -78.0766 150° Southeast  Level Estimated
11:10AM -10.4970 -78.0110 150° Southeast  Level Estimated
11:11AM -10.6092 -77.9454 150° Southeast  Level Estimated
11:12AM -10.7214 -77.8797 150° Southeast  Level Estimated
11:13AM -10.8336 -77.8140 150° Southeast  Level Estimated
11:14AM -10.9458 -77.7482 150° Southeast  Level Estimated
11:15AM -11.0580 -77.6824 150° Southeast  Level Estimated
11:16AM -11.1701 -77.6165 150° Southeast  Level Estimated
11:17AM -11.2823 -77.5506 150° Southeast  Level Estimated
11:17AM -11.4770 -77.3820 150° Southeast 342 394 7,900  Level FlightAware
11:17AM -11.4990 -77.3710 154° Southeast 341 392 7,700 -540 Descending FlightAware
11:18AM -11.5540 -77.3440 154° Southeast 337 388 7,400 -420 Descending FlightAware
11:21AM -11.8293 -77.1937 154° Southeast  Level FlightAware Approximate
11:22AM -11.9491 -77.1437 159° South  Level FlightAware Approximate
11:23AM -12.0167 -77.1167 159° South  Level FlightAware Approximate
11:24AM -12.0219 -77.1143 159° South  Level Estimated
11:25AM -12.0167 -77.1167 159° South  Level FlightAware Approximate
11:26AM -12.0219 -77.1143 159° South  Level Estimated
11:27AM -12.0167 -77.1167 159° South  Level FlightAware Approximate
11:28AM -12.0219 -77.1143 159° South  Level Estimated
11:29AM -12.0167 -77.1167 159° South  Level FlightAware Approximate
11:30AM -12.0219 -77.1143 159° South  Level Estimated
11:31AM -12.0167 -77.1167 159° South  Level FlightAware Approximate
11:32AM -12.0219 -77.1143 159° South  Level Estimated
11:33AM -12.0167 -77.1167 159° South  Level FlightAware Approximate
11:34AM -12.0219 -77.1143 159° South  Level Estimated
11:35AM -12.0167 -77.1167 159° South  Level FlightAware Approximate
11:36AM -12.0219 -77.1143 159° South  Level Estimated
11:37AM -12.0167 -77.1167 159° South  Level FlightAware Approximate
11:38AM -12.0219 -77.1143 159° South  Level Estimated
11:39AM -12.0167 -77.1167 159° South  Level FlightAware Approximate
11:40AM -12.0219 -77.1143 159° South  Level Estimated
11:41AM -12.0167 -77.1167 159° South  Level FlightAware Approximate
11:42AM -12.0219 -77.1143 159° South  Level Estimated
11:43AM -12.0167 -77.1167 159° South  Level FlightAware Approximate
11:44AM -12.0219 -77.1143 159° South  Level Estimated